Time,TemperatureF,DewpointF,PressureIn,WindDirection,WindDirectionDegrees,WindSpeedMPH,WindSpeedGustMPH,Humidity,HourlyPrecipIn,Conditions,Clouds,dailyrainin,SoftwareType,DateUTC
2013-10-09 00:02:00,44.6,36.9,30.19,ENE,78,0.0,0.0,74,0.00,,,0.00,meteohub,2013-10-09 04:02:00,
2013-10-09 00:07:00,44.4,36.7,30.19,ENE,78,0.0,0.0,74,0.00,,,0.00,meteohub,2013-10-09 04:07:00,
2013-10-09 00:12:00,44.2,36.5,30.22,ENE,78,0.0,0.0,74,0.00,,,0.00,meteohub,2013-10-09 04:12:00,
2013-10-09 00:17:00,44.1,36.7,30.22,NNW,348,0.0,0.0,75,0.00,,,0.00,meteohub,2013-10-09 04:17:00,
2013-10-09 00:22:00,43.7,36.0,30.22,NW,325,0.0,0.0,74,0.00,,,0.00,meteohub,2013-10-09 04:22:00,
2013-10-09 00:27:00,43.5,36.1,30.22,North,10,0.0,0.0,75,0.00,,,0.00,meteohub,2013-10-09 04:27:00,
2013-10-09 00:32:00,43.3,36.0,30.22,ENE,78,0.0,0.0,75,0.00,,,0.00,meteohub,2013-10-09 04:32:00,
2013-10-09 00:37:00,43.3,36.0,30.22,ENE,78,0.0,0.0,75,0.00,,,0.00,meteohub,2013-10-09 04:37:00,
2013-10-09 00:42:00,43.5,36.1,30.19,East,100,0.0,0.0,75,0.00,,,0.00,meteohub,2013-10-09 04:42:00,
2013-10-09 00:47:00,43.5,36.1,30.19,East,100,0.0,0.0,75,0.00,,,0.00,meteohub,2013-10-09 04:47:00,
2013-10-09 00:52:00,43.3,36.0,30.19,East,100,0.0,0.0,75,0.00,,,0.00,meteohub,2013-10-09 04:52:00,
2013-10-09 00:57:00,43.2,35.8,30.19,East,100,0.0,0.0,75,0.00,,,0.00,meteohub,2013-10-09 04:57:00,
2013-10-09 01:02:00,43.0,35.6,30.19,East,100,0.0,0.0,75,0.00,,,0.00,meteohub,2013-10-09 05:02:00,
2013-10-09 01:07:00,43.0,36.0,30.19,East,100,0.0,0.0,76,0.00,,,0.00,meteohub,2013-10-09 05:07:00,
2013-10-09 01:12:00,42.8,35.8,30.19,East,100,0.0,0.0,76,0.00,,,0.00,meteohub,2013-10-09 05:12:00,
2013-10-09 01:17:00,42.6,35.6,30.19,East,100,0.0,0.0,76,0.00,,,0.00,meteohub,2013-10-09 05:17:00,
2013-10-09 01:22:00,42.4,35.4,30.19,East,100,0.0,0.0,76,0.00,,,0.00,meteohub,2013-10-09 05:22:00,
2013-10-09 01:27:00,42.4,35.4,30.19,East,100,0.0,0.0,76,0.00,,,0.00,meteohub,2013-10-09 05:27:00,
2013-10-09 01:32:00,42.4,35.4,30.19,East,100,0.0,0.0,76,0.00,,,0.00,meteohub,2013-10-09 05:32:00,
2013-10-09 01:37:00,42.4,35.8,30.19,East,100,0.0,0.0,77,0.00,,,0.00,meteohub,2013-10-09 05:37:00,
2013-10-09 01:42:00,42.4,35.8,30.19,East,100,0.0,0.0,77,0.00,,,0.00,meteohub,2013-10-09 05:42:00,
2013-10-09 01:47:00,42.3,35.6,30.19,East,100,0.0,0.0,77,0.00,,,0.00,meteohub,2013-10-09 05:47:00,
2013-10-09 01:52:00,42.3,35.6,30.19,East,100,0.0,0.0,77,0.00,,,0.00,meteohub,2013-10-09 05:52:00,
2013-10-09 01:57:00,42.3,35.6,30.19,East,100,0.0,0.0,77,0.00,,,0.00,meteohub,2013-10-09 05:57:00,
2013-10-09 02:02:00,42.1,35.4,30.19,East,100,0.0,0.0,77,0.00,,,0.00,meteohub,2013-10-09 06:02:00,
2013-10-09 02:07:00,42.1,35.4,30.19,East,100,0.0,0.0,77,0.00,,,0.00,meteohub,2013-10-09 06:07:00,
2013-10-09 02:12:00,42.1,35.4,30.19,East,100,0.0,0.0,77,0.00,,,0.00,meteohub,2013-10-09 06:12:00,
2013-10-09 02:17:00,41.7,35.1,30.19,East,100,0.0,0.0,77,0.00,,,0.00,meteohub,2013-10-09 06:17:00,
2013-10-09 02:22:00,41.7,35.1,30.19,East,100,0.0,0.0,77,0.00,,,0.00,meteohub,2013-10-09 06:22:00,
2013-10-09 02:27:00,41.7,35.1,30.19,East,100,0.0,0.0,77,0.00,,,0.00,meteohub,2013-10-09 06:27:00,
2013-10-09 02:32:00,41.7,35.1,30.19,East,100,0.0,0.0,77,0.00,,,0.00,meteohub,2013-10-09 06:32:00,
2013-10-09 02:37:00,41.7,35.1,30.19,East,100,0.0,0.0,77,0.00,,,0.00,meteohub,2013-10-09 06:37:00,
2013-10-09 02:42:00,41.5,35.2,30.19,East,100,0.0,0.0,78,0.00,,,0.00,meteohub,2013-10-09 06:42:00,
2013-10-09 02:47:00,41.5,35.2,30.19,East,100,0.0,0.0,78,0.00,,,0.00,meteohub,2013-10-09 06:47:00,
2013-10-09 02:52:00,41.4,35.1,30.19,East,100,0.0,0.0,78,0.00,,,0.00,meteohub,2013-10-09 06:52:00,
2013-10-09 02:57:00,41.5,35.2,30.19,East,100,0.0,0.0,78,0.00,,,0.00,meteohub,2013-10-09 06:57:00,
2013-10-09 03:02:00,41.4,35.4,30.19,East,100,0.0,0.0,79,0.00,,,0.00,meteohub,2013-10-09 07:02:00,
2013-10-09 03:07:00,41.2,34.9,30.19,East,100,0.0,0.0,78,0.00,,,0.00,meteohub,2013-10-09 07:07:00,
2013-10-09 03:12:00,41.4,35.1,30.19,East,100,0.0,0.0,78,0.00,,,0.00,meteohub,2013-10-09 07:12:00,
2013-10-09 03:17:00,41.4,35.4,30.19,East,100,0.0,0.0,79,0.00,,,0.00,meteohub,2013-10-09 07:17:00,
2013-10-09 03:22:00,41.4,35.4,30.19,East,100,0.0,0.0,79,0.00,,,0.00,meteohub,2013-10-09 07:22:00,
2013-10-09 03:27:00,41.4,35.4,30.19,East,100,0.0,0.0,79,0.00,,,0.00,meteohub,2013-10-09 07:27:00,
2013-10-09 03:32:00,41.2,35.4,30.19,East,100,0.0,0.0,80,0.00,,,0.00,meteohub,2013-10-09 07:32:00,
2013-10-09 03:37:00,41.2,35.4,30.19,East,100,0.0,0.0,80,0.00,,,0.00,meteohub,2013-10-09 07:37:00,
2013-10-09 03:42:00,41.2,35.4,30.19,East,100,0.0,0.0,80,0.00,,,0.00,meteohub,2013-10-09 07:42:00,
2013-10-09 03:47:00,41.2,35.4,30.19,East,100,0.0,0.0,80,0.00,,,0.00,meteohub,2013-10-09 07:47:00,
2013-10-09 03:52:00,41.0,35.2,30.19,East,100,0.0,0.0,80,0.00,,,0.00,meteohub,2013-10-09 07:52:00,
2013-10-09 03:57:00,41.0,35.2,30.19,East,100,0.0,0.0,80,0.00,,,0.00,meteohub,2013-10-09 07:57:00,
2013-10-09 04:02:00,41.0,35.6,30.19,East,100,0.0,0.0,81,0.00,,,0.00,meteohub,2013-10-09 08:02:00,
2013-10-09 04:07:00,41.0,35.6,30.19,East,100,0.0,0.0,81,0.00,,,0.00,meteohub,2013-10-09 08:07:00,
2013-10-09 04:12:00,40.8,35.4,30.19,East,100,0.0,0.0,81,0.00,,,0.00,meteohub,2013-10-09 08:12:00,
2013-10-09 04:17:00,41.0,35.6,30.19,East,100,0.0,0.0,81,0.00,,,0.00,meteohub,2013-10-09 08:17:00,
2013-10-09 04:22:00,40.8,35.4,30.19,East,100,0.0,0.0,81,0.00,,,0.00,meteohub,2013-10-09 08:22:00,
2013-10-09 04:27:00,40.6,35.6,30.19,East,100,0.0,0.0,82,0.00,,,0.00,meteohub,2013-10-09 08:27:00,
2013-10-09 04:32:00,40.8,35.8,30.19,East,100,0.0,0.0,82,0.00,,,0.00,meteohub,2013-10-09 08:32:00,
2013-10-09 04:37:00,40.8,35.8,30.19,East,100,0.0,0.0,82,0.00,,,0.00,meteohub,2013-10-09 08:37:00,
2013-10-09 04:42:00,40.8,35.8,30.19,East,100,0.0,0.0,82,0.00,,,0.00,meteohub,2013-10-09 08:42:00,
2013-10-09 04:47:00,40.6,35.6,30.19,East,100,0.0,0.0,82,0.00,,,0.00,meteohub,2013-10-09 08:47:00,
2013-10-09 04:52:00,40.6,35.6,30.19,East,100,0.0,0.0,82,0.00,,,0.00,meteohub,2013-10-09 08:52:00,
2013-10-09 04:57:00,40.6,35.6,30.19,East,100,0.0,0.0,82,0.00,,,0.00,meteohub,2013-10-09 08:57:00,
2013-10-09 05:02:00,40.6,36.0,30.19,East,100,0.0,0.0,83,0.00,,,0.00,meteohub,2013-10-09 09:02:00,
2013-10-09 05:07:00,40.6,36.0,30.19,East,100,0.0,0.0,83,0.00,,,0.00,meteohub,2013-10-09 09:07:00,
2013-10-09 05:12:00,40.6,36.0,30.19,SE,145,0.0,0.0,83,0.00,,,0.00,meteohub,2013-10-09 09:12:00,
2013-10-09 05:17:00,40.6,36.0,30.19,ESE,122,0.0,0.0,83,0.00,,,0.00,meteohub,2013-10-09 09:17:00,
2013-10-09 05:22:00,40.5,35.8,30.19,ENE,78,0.0,0.0,83,0.00,,,0.00,meteohub,2013-10-09 09:22:00,
2013-10-09 05:27:00,40.5,35.8,30.19,ENE,78,0.0,0.0,83,0.00,,,0.00,meteohub,2013-10-09 09:27:00,
2013-10-09 05:32:00,40.5,35.8,30.19,ENE,78,0.0,0.0,83,0.00,,,0.00,meteohub,2013-10-09 09:32:00,
2013-10-09 05:37:00,40.5,35.4,30.19,ENE,78,0.0,0.0,82,0.00,,,0.00,meteohub,2013-10-09 09:37:00,
2013-10-09 05:42:00,40.5,35.4,30.19,ENE,78,0.0,0.0,82,0.00,,,0.00,meteohub,2013-10-09 09:42:00,
2013-10-09 05:47:00,40.3,35.2,30.19,ENE,78,0.0,0.0,82,0.00,,,0.00,meteohub,2013-10-09 09:47:00,
2013-10-09 05:52:00,40.3,35.6,30.19,SE,145,0.0,0.0,83,0.00,,,0.00,meteohub,2013-10-09 09:52:00,
2013-10-09 05:57:00,40.1,35.1,30.19,SSE,168,0.0,0.0,82,0.00,,,0.00,meteohub,2013-10-09 09:57:00,
2013-10-09 06:02:00,40.1,35.4,30.19,SE,145,0.0,0.0,83,0.00,,,0.00,meteohub,2013-10-09 10:02:00,
2013-10-09 06:07:00,40.1,35.4,30.19,SE,145,0.0,0.0,83,0.00,,,0.00,meteohub,2013-10-09 10:07:00,
2013-10-09 06:12:00,39.9,35.2,30.19,SE,145,0.0,0.0,83,0.00,,,0.00,meteohub,2013-10-09 10:12:00,
2013-10-09 06:17:00,40.1,35.4,30.19,South,190,0.0,0.0,83,0.00,,,0.00,meteohub,2013-10-09 10:17:00,
2013-10-09 06:22:00,40.1,35.4,30.19,SE,145,0.0,0.0,83,0.00,,,0.00,meteohub,2013-10-09 10:22:00,
2013-10-09 06:27:00,39.9,35.2,30.19,ESE,122,0.0,0.0,83,0.00,,,0.00,meteohub,2013-10-09 10:27:00,
2013-10-09 06:32:00,39.9,35.2,30.19,SSE,168,0.0,0.0,83,0.00,,,0.00,meteohub,2013-10-09 10:32:00,
2013-10-09 06:37:00,39.9,35.4,30.19,ESE,122,0.0,0.0,84,0.00,,,0.00,meteohub,2013-10-09 10:37:00,
2013-10-09 06:42:00,39.9,35.4,30.19,ESE,122,0.0,0.0,84,0.00,,,0.00,meteohub,2013-10-09 10:42:00,
2013-10-09 06:47:00,39.9,35.4,30.19,SE,145,0.0,0.0,84,0.00,,,0.00,meteohub,2013-10-09 10:47:00,
2013-10-09 06:52:00,39.7,35.2,30.19,WSW,258,0.0,0.0,84,0.00,,,0.00,meteohub,2013-10-09 10:52:00,
2013-10-09 06:57:00,39.6,34.9,30.19,SSE,168,0.0,0.0,83,0.00,,,0.00,meteohub,2013-10-09 10:57:00,
2013-10-09 07:02:00,39.6,34.9,30.19,SSE,168,0.0,0.0,83,0.00,,,0.00,meteohub,2013-10-09 11:02:00,
2013-10-09 07:07:00,39.6,34.9,30.19,SSE,168,0.0,0.0,83,0.00,,,0.00,meteohub,2013-10-09 11:07:00,
2013-10-09 07:12:00,39.6,34.9,30.19,SE,145,0.0,0.0,83,0.00,,,0.00,meteohub,2013-10-09 11:12:00,
2013-10-09 07:17:00,39.4,34.7,30.19,ESE,122,0.0,0.0,83,0.00,,,0.00,meteohub,2013-10-09 11:17:00,
2013-10-09 07:22:00,39.4,34.7,30.19,ESE,122,0.0,0.0,83,0.00,,,0.00,meteohub,2013-10-09 11:22:00,
2013-10-09 07:27:00,39.4,34.7,30.19,SSE,168,0.0,0.0,83,0.00,,,0.00,meteohub,2013-10-09 11:27:00,
2013-10-09 07:32:00,39.2,34.5,30.19,SSE,168,0.0,0.0,83,0.00,,,0.00,meteohub,2013-10-09 11:32:00,
2013-10-09 07:37:00,39.4,34.7,30.19,SSE,168,0.0,0.0,83,0.00,,,0.00,meteohub,2013-10-09 11:37:00,
2013-10-09 07:42:00,39.2,34.5,30.19,SSE,168,0.0,0.0,83,0.00,,,0.00,meteohub,2013-10-09 11:42:00,
2013-10-09 07:47:00,39.2,34.5,30.19,SSE,168,0.0,0.0,83,0.00,,,0.00,meteohub,2013-10-09 11:47:00,
2013-10-09 07:52:00,39.2,34.5,30.19,SE,145,0.0,0.0,83,0.00,,,0.00,meteohub,2013-10-09 11:52:00,
2013-10-09 07:57:00,39.2,34.5,30.22,ESE,122,0.0,0.0,83,0.00,,,0.00,meteohub,2013-10-09 11:57:00,
2013-10-09 08:02:00,39.2,34.5,30.22,ESE,122,0.0,0.0,83,0.00,,,0.00,meteohub,2013-10-09 12:02:00,
2013-10-09 08:07:00,39.0,34.5,30.22,NE,55,0.0,0.0,84,0.00,,,0.00,meteohub,2013-10-09 12:07:00,
2013-10-09 08:12:00,39.0,34.5,30.22,West,280,0.0,0.0,84,0.00,,,0.00,meteohub,2013-10-09 12:12:00,
2013-10-09 08:17:00,39.0,34.5,30.22,East,100,0.0,0.0,84,0.00,,,0.00,meteohub,2013-10-09 12:17:00,
2013-10-09 08:22:00,38.8,34.5,30.22,East,100,0.0,0.0,84,0.00,,,0.00,meteohub,2013-10-09 12:22:00,
2013-10-09 08:27:00,39.2,34.7,30.22,East,100,0.0,0.0,84,0.00,,,0.00,meteohub,2013-10-09 12:27:00,
2013-10-09 08:32:00,39.2,34.7,30.22,NNE,32,0.0,0.0,84,0.00,,,0.00,meteohub,2013-10-09 12:32:00,
2013-10-09 08:37:00,39.2,34.7,30.22,North,10,0.0,0.0,84,0.00,,,0.00,meteohub,2013-10-09 12:37:00,
2013-10-09 08:42:00,39.2,34.7,30.22,WNW,302,0.0,0.0,84,0.00,,,0.00,meteohub,2013-10-09 12:42:00,
2013-10-09 08:47:00,39.4,35.2,30.22,South,190,0.0,0.0,85,0.00,,,0.00,meteohub,2013-10-09 12:47:00,
2013-10-09 08:52:00,39.4,35.2,30.22,North,10,0.0,0.0,85,0.00,,,0.00,meteohub,2013-10-09 12:52:00,
2013-10-09 08:57:00,39.4,35.2,30.19,North,10,0.0,0.0,85,0.00,,,0.00,meteohub,2013-10-09 12:57:00,
2013-10-09 09:02:00,39.7,35.6,30.19,NNW,348,0.0,0.0,85,0.00,,,0.00,meteohub,2013-10-09 13:02:00,
2013-10-09 09:07:00,39.6,35.4,30.19,North,10,0.0,2.0,85,0.00,,,0.00,meteohub,2013-10-09 13:07:00,
2013-10-09 09:12:00,39.7,35.6,30.22,North,10,0.0,2.0,85,0.00,,,0.00,meteohub,2013-10-09 13:12:00,
2013-10-09 09:17:00,39.9,36.1,30.22,North,10,0.0,3.0,86,0.00,,,0.00,meteohub,2013-10-09 13:17:00,
2013-10-09 09:22:00,39.9,36.1,30.22,ESE,122,0.0,3.0,86,0.00,,,0.00,meteohub,2013-10-09 13:22:00,
2013-10-09 09:27:00,40.1,36.3,30.19,WNW,302,0.0,3.0,86,0.00,,,0.00,meteohub,2013-10-09 13:27:00,
2013-10-09 09:32:00,40.3,36.5,30.19,North,10,0.0,2.0,86,0.00,,,0.00,meteohub,2013-10-09 13:32:00,
2013-10-09 09:37:00,40.5,36.9,30.19,WNW,302,0.0,3.0,87,0.00,,,0.00,meteohub,2013-10-09 13:37:00,
2013-10-09 09:42:00,40.6,37.0,30.19,NNW,348,0.0,3.0,87,0.00,,,0.00,meteohub,2013-10-09 13:42:00,
2013-10-09 09:47:00,40.8,37.2,30.19,NNE,32,0.0,0.0,87,0.00,,,0.00,meteohub,2013-10-09 13:47:00,
2013-10-09 09:52:00,41.0,37.4,30.19,NNW,348,0.0,0.0,87,0.00,,,0.00,meteohub,2013-10-09 13:52:00,
2013-10-09 09:57:00,41.2,37.6,30.22,North,10,0.0,0.0,87,0.00,,,0.00,meteohub,2013-10-09 13:57:00,
2013-10-09 10:02:00,41.4,38.1,30.22,NNW,348,0.0,0.0,88,0.00,,,0.00,meteohub,2013-10-09 14:02:00,
2013-10-09 10:07:00,41.7,38.5,30.22,ENE,78,0.0,4.0,88,0.00,,,0.00,meteohub,2013-10-09 14:07:00,
2013-10-09 10:12:00,41.9,38.8,30.22,SSW,212,0.0,4.0,89,0.00,,,0.00,meteohub,2013-10-09 14:12:00,
2013-10-09 10:17:00,42.3,39.2,30.22,ESE,122,0.0,3.0,89,0.00,,,0.00,meteohub,2013-10-09 14:17:00,
2013-10-09 10:22:00,42.4,39.7,30.22,South,190,0.0,0.0,90,0.00,,,0.00,meteohub,2013-10-09 14:22:00,
2013-10-09 10:27:00,42.8,40.1,30.22,SSE,168,0.0,0.0,90,0.00,,,0.00,meteohub,2013-10-09 14:27:00,
2013-10-09 10:32:00,43.3,40.6,30.22,NNW,348,0.0,0.0,90,0.00,,,0.00,meteohub,2013-10-09 14:32:00,
2013-10-09 10:37:00,43.5,41.0,30.22,NNE,32,0.0,0.0,91,0.00,,,0.00,meteohub,2013-10-09 14:37:00,
2013-10-09 10:42:00,43.9,41.4,30.22,North,10,0.0,0.0,91,0.00,,,0.00,meteohub,2013-10-09 14:42:00,
2013-10-09 10:47:00,44.4,42.3,30.22,NNW,348,0.0,0.0,92,0.00,,,0.00,meteohub,2013-10-09 14:47:00,
2013-10-09 10:52:00,44.8,42.6,30.22,West,280,0.0,0.0,92,0.00,,,0.00,meteohub,2013-10-09 14:52:00,
2013-10-09 10:57:00,45.3,43.2,30.22,WNW,302,0.0,0.0,92,0.00,,,0.00,meteohub,2013-10-09 14:57:00,
2013-10-09 11:02:00,45.5,43.5,30.22,South,190,0.0,0.0,93,0.00,,,0.00,meteohub,2013-10-09 15:02:00,
2013-10-09 11:07:00,46.2,44.2,30.22,West,280,0.0,0.0,93,0.00,,,0.00,meteohub,2013-10-09 15:07:00,
2013-10-09 11:12:00,46.4,44.4,30.22,West,280,0.0,0.0,93,0.00,,,0.00,meteohub,2013-10-09 15:12:00,
2013-10-09 11:17:00,46.9,45.0,30.22,NW,325,0.0,0.0,93,0.00,,,0.00,meteohub,2013-10-09 15:17:00,
2013-10-09 11:22:00,47.5,45.3,30.22,West,280,0.0,0.0,92,0.00,,,0.00,meteohub,2013-10-09 15:22:00,
2013-10-09 11:27:00,48.0,45.9,30.22,SW,235,0.0,3.0,92,0.00,,,0.00,meteohub,2013-10-09 15:27:00,
2013-10-09 11:32:00,48.6,46.4,30.22,SSW,212,0.0,3.0,92,0.00,,,0.00,meteohub,2013-10-09 15:32:00,
2013-10-09 11:37:00,49.1,46.6,30.22,ENE,78,0.0,2.0,91,0.00,,,0.00,meteohub,2013-10-09 15:37:00,
2013-10-09 11:42:00,50.0,46.9,30.19,SSW,212,0.0,2.0,89,0.00,,,0.00,meteohub,2013-10-09 15:42:00,
2013-10-09 11:47:00,50.7,46.0,30.19,West,280,5.0,5.0,84,0.00,,,0.00,meteohub,2013-10-09 15:47:00,
2013-10-09 11:52:00,51.3,45.7,30.19,East,100,0.0,5.0,81,0.00,,,0.00,meteohub,2013-10-09 15:52:00,
2013-10-09 11:57:00,51.6,45.3,30.22,North,10,4.0,5.0,79,0.00,,,0.00,meteohub,2013-10-09 15:57:00,
2013-10-09 12:02:00,52.3,44.6,30.22,SSW,212,2.0,5.0,75,0.00,,,0.00,meteohub,2013-10-09 16:02:00,
2013-10-09 12:07:00,53.1,45.7,30.22,SE,145,3.0,5.0,76,0.00,,,0.00,meteohub,2013-10-09 16:07:00,
2013-10-09 12:12:00,53.4,45.3,30.22,SE,145,0.0,4.0,74,0.00,,,0.00,meteohub,2013-10-09 16:12:00,
2013-10-09 12:17:00,54.5,46.4,30.22,North,10,6.0,6.0,74,0.00,,,0.00,meteohub,2013-10-09 16:17:00,
2013-10-09 12:22:00,55.2,44.8,30.22,NNW,348,0.0,9.0,68,0.00,,,0.00,meteohub,2013-10-09 16:22:00,
2013-10-09 12:27:00,55.9,44.4,30.22,SSE,168,6.0,11.0,65,0.00,,,0.00,meteohub,2013-10-09 16:27:00,
2013-10-09 12:32:00,57.0,44.6,30.22,SE,145,0.0,11.0,63,0.00,,,0.00,meteohub,2013-10-09 16:32:00,
2013-10-09 12:37:00,57.6,44.2,30.22,WNW,302,5.0,11.0,61,0.00,,,0.00,meteohub,2013-10-09 16:37:00,
2013-10-09 12:42:00,57.7,41.7,30.19,NW,325,4.0,9.0,55,0.00,,,0.00,meteohub,2013-10-09 16:42:00,
2013-10-09 12:47:00,58.3,43.5,30.19,East,100,3.0,15.0,58,0.00,,,0.00,meteohub,2013-10-09 16:47:00,
2013-10-09 12:52:00,58.6,40.6,30.19,SSE,168,5.0,15.0,51,0.00,,,0.00,meteohub,2013-10-09 16:52:00,
2013-10-09 12:57:00,58.8,38.7,30.19,NNE,32,7.0,15.0,47,0.00,,,0.00,meteohub,2013-10-09 16:57:00,
2013-10-09 13:02:00,59.2,39.0,30.19,WSW,258,5.0,16.0,47,0.00,,,0.00,meteohub,2013-10-09 17:02:00,
2013-10-09 13:07:00,59.4,38.1,30.19,South,190,7.0,16.0,45,0.00,,,0.00,meteohub,2013-10-09 17:07:00,
2013-10-09 13:12:00,59.9,39.0,30.19,North,10,8.0,16.0,46,0.00,,,0.00,meteohub,2013-10-09 17:12:00,
2013-10-09 13:17:00,60.3,38.3,30.19,ESE,122,6.0,13.0,44,0.00,,,0.00,meteohub,2013-10-09 17:17:00,
2013-10-09 13:22:00,60.4,38.5,30.19,WNW,302,8.0,12.0,44,0.00,,,0.00,meteohub,2013-10-09 17:22:00,
2013-10-09 13:27:00,60.8,38.1,30.19,NW,325,7.0,15.0,43,0.00,,,0.00,meteohub,2013-10-09 17:27:00,
2013-10-09 13:32:00,61.0,38.3,30.19,NNE,32,5.0,15.0,43,0.00,,,0.00,meteohub,2013-10-09 17:32:00,
2013-10-09 13:37:00,61.2,38.5,30.19,North,10,8.0,15.0,43,0.00,,,0.00,meteohub,2013-10-09 17:37:00,
2013-10-09 13:42:00,61.3,38.7,30.19,NNW,348,9.0,13.0,43,0.00,,,0.00,meteohub,2013-10-09 17:42:00,
2013-10-09 13:47:00,61.2,37.9,30.19,NNW,348,9.0,15.0,42,0.00,,,0.00,meteohub,2013-10-09 17:47:00,
2013-10-09 13:52:00,61.7,38.5,30.19,NW,325,6.0,17.0,42,0.00,,,0.00,meteohub,2013-10-09 17:52:00,
2013-10-09 13:57:00,61.9,37.9,30.16,WNW,302,7.0,17.0,41,0.00,,,0.00,meteohub,2013-10-09 17:57:00,
2013-10-09 14:02:00,62.2,38.3,30.16,NW,325,7.0,17.0,41,0.00,,,0.00,meteohub,2013-10-09 18:02:00,
2013-10-09 14:07:00,62.4,37.8,30.16,North,10,5.0,13.0,40,0.00,,,0.00,meteohub,2013-10-09 18:07:00,
2013-10-09 14:12:00,63.0,38.3,30.16,WNW,302,7.0,13.0,40,0.00,,,0.00,meteohub,2013-10-09 18:12:00,
2013-10-09 14:17:00,63.5,38.1,30.16,NNW,348,3.0,13.0,39,0.00,,,0.00,meteohub,2013-10-09 18:17:00,
2013-10-09 14:22:00,63.7,38.3,30.16,NNW,348,5.0,13.0,39,0.00,,,0.00,meteohub,2013-10-09 18:22:00,
2013-10-09 14:27:00,64.4,37.6,30.16,North,10,11.0,13.0,37,0.00,,,0.00,meteohub,2013-10-09 18:27:00,
2013-10-09 14:32:00,64.8,38.7,30.16,NNE,32,2.0,13.0,38,0.00,,,0.00,meteohub,2013-10-09 18:32:00,
2013-10-09 14:37:00,65.1,38.3,30.16,NNW,348,10.0,12.0,37,0.00,,,0.00,meteohub,2013-10-09 18:37:00,
2013-10-09 14:42:00,65.3,38.5,30.19,NNW,348,6.0,12.0,37,0.00,,,0.00,meteohub,2013-10-09 18:42:00,
2013-10-09 14:47:00,66.0,38.3,30.19,ESE,122,13.0,13.0,36,0.00,,,0.00,meteohub,2013-10-09 18:47:00,
2013-10-09 14:52:00,66.0,38.3,30.19,North,10,7.0,13.0,36,0.00,,,0.00,meteohub,2013-10-09 18:52:00,
2013-10-09 14:57:00,66.0,37.6,30.16,WNW,302,6.0,13.0,35,0.00,,,0.00,meteohub,2013-10-09 18:57:00,
2013-10-09 15:02:00,66.0,36.9,30.16,East,100,6.0,13.0,34,0.00,,,0.00,meteohub,2013-10-09 19:02:00,
2013-10-09 15:07:00,66.0,36.9,30.16,WNW,302,6.0,9.0,34,0.00,,,0.00,meteohub,2013-10-09 19:07:00,
2013-10-09 15:12:00,66.2,36.3,30.19,South,190,6.0,13.0,33,0.00,,,0.00,meteohub,2013-10-09 19:12:00,
2013-10-09 15:17:00,65.8,36.0,30.19,NNW,348,8.0,13.0,33,0.00,,,0.00,meteohub,2013-10-09 19:17:00,
2013-10-09 15:22:00,65.7,35.8,30.19,SE,145,8.0,13.0,33,0.00,,,0.00,meteohub,2013-10-09 19:22:00,
2013-10-09 15:27:00,65.3,35.4,30.16,NNW,348,8.0,15.0,33,0.00,,,0.00,meteohub,2013-10-09 19:27:00,
2013-10-09 15:32:00,65.1,35.4,30.16,South,190,3.0,15.0,33,0.00,,,0.00,meteohub,2013-10-09 19:32:00,
2013-10-09 15:37:00,64.9,35.2,30.16,NNW,348,5.0,15.0,33,0.00,,,0.00,meteohub,2013-10-09 19:37:00,
2013-10-09 15:42:00,64.8,35.8,30.16,SSW,212,5.0,12.0,34,0.00,,,0.00,meteohub,2013-10-09 19:42:00,
2013-10-09 15:47:00,64.4,34.7,30.16,North,10,4.0,12.0,33,0.00,,,0.00,meteohub,2013-10-09 19:47:00,
2013-10-09 15:52:00,64.2,35.2,30.16,NNW,348,6.0,10.0,34,0.00,,,0.00,meteohub,2013-10-09 19:52:00,
2013-10-09 15:57:00,64.0,35.1,30.16,East,100,5.0,10.0,34,0.00,,,0.00,meteohub,2013-10-09 19:57:00,
2013-10-09 16:02:00,63.9,35.1,30.16,SSE,168,5.0,10.0,34,0.00,,,0.00,meteohub,2013-10-09 20:02:00,
2013-10-09 16:07:00,63.9,35.1,30.16,NE,55,10.0,10.0,34,0.00,,,0.00,meteohub,2013-10-09 20:07:00,
2013-10-09 16:12:00,64.2,35.2,30.16,North,10,4.0,12.0,34,0.00,,,0.00,meteohub,2013-10-09 20:12:00,
2013-10-09 16:17:00,64.6,34.9,30.16,North,10,5.0,12.0,33,0.00,,,0.00,meteohub,2013-10-09 20:17:00,
2013-10-09 16:22:00,64.8,35.1,30.16,WNW,302,6.0,12.0,33,0.00,,,0.00,meteohub,2013-10-09 20:22:00,
2013-10-09 16:27:00,65.1,35.4,30.16,NNE,32,10.0,12.0,33,0.00,,,0.00,meteohub,2013-10-09 20:27:00,
2013-10-09 16:32:00,65.1,35.4,30.16,NNW,348,9.0,14.0,33,0.00,,,0.00,meteohub,2013-10-09 20:32:00,
2013-10-09 16:37:00,64.9,35.2,30.16,WNW,302,4.0,14.0,33,0.00,,,0.00,meteohub,2013-10-09 20:37:00,
2013-10-09 16:42:00,64.2,35.2,30.16,SW,235,3.0,14.0,34,0.00,,,0.00,meteohub,2013-10-09 20:42:00,
2013-10-09 16:47:00,63.9,35.1,30.16,SE,145,3.0,13.0,34,0.00,,,0.00,meteohub,2013-10-09 20:47:00,
2013-10-09 16:52:00,63.5,34.7,30.16,NNW,348,8.0,11.0,34,0.00,,,0.00,meteohub,2013-10-09 20:52:00,
2013-10-09 16:57:00,63.3,34.5,30.16,SSE,168,5.0,8.0,34,0.00,,,0.00,meteohub,2013-10-09 20:57:00,
2013-10-09 17:02:00,63.7,34.9,30.16,NNW,348,6.0,8.0,34,0.00,,,0.00,meteohub,2013-10-09 21:02:00,
2013-10-09 17:07:00,63.7,34.9,30.16,NNW,348,3.0,8.0,34,0.00,,,0.00,meteohub,2013-10-09 21:07:00,
2013-10-09 17:12:00,63.9,35.1,30.16,WNW,302,4.0,8.0,34,0.00,,,0.00,meteohub,2013-10-09 21:12:00,
2013-10-09 17:17:00,63.9,35.1,30.16,SSW,212,2.0,8.0,34,0.00,,,0.00,meteohub,2013-10-09 21:17:00,
2013-10-09 17:22:00,63.9,35.8,30.16,North,10,6.0,9.0,35,0.00,,,0.00,meteohub,2013-10-09 21:22:00,
2013-10-09 17:27:00,64.0,36.0,30.16,NNW,348,4.0,9.0,35,0.00,,,0.00,meteohub,2013-10-09 21:27:00,
2013-10-09 17:32:00,63.9,35.1,30.16,NE,55,8.0,9.0,34,0.00,,,0.00,meteohub,2013-10-09 21:32:00,
2013-10-09 17:37:00,63.9,35.1,30.16,South,190,9.0,12.0,34,0.00,,,0.00,meteohub,2013-10-09 21:37:00,
2013-10-09 17:42:00,63.9,35.1,30.16,NNW,348,5.0,12.0,34,0.00,,,0.00,meteohub,2013-10-09 21:42:00,
2013-10-09 17:47:00,63.7,34.9,30.16,WNW,302,3.0,12.0,34,0.00,,,0.00,meteohub,2013-10-09 21:47:00,
2013-10-09 17:52:00,63.5,34.7,30.16,NE,55,5.0,9.0,34,0.00,,,0.00,meteohub,2013-10-09 21:52:00,
2013-10-09 17:57:00,63.5,34.7,30.16,SE,145,3.0,8.0,34,0.00,,,0.00,meteohub,2013-10-09 21:57:00,
2013-10-09 18:02:00,63.1,33.6,30.16,SW,235,2.0,11.0,33,0.00,,,0.00,meteohub,2013-10-09 22:02:00,
2013-10-09 18:07:00,63.0,33.4,30.16,NE,55,5.0,11.0,33,0.00,,,0.00,meteohub,2013-10-09 22:07:00,
2013-10-09 18:12:00,62.8,33.3,30.16,NNE,32,7.0,8.0,33,0.00,,,0.00,meteohub,2013-10-09 22:12:00,
2013-10-09 18:17:00,62.6,33.1,30.16,South,190,5.0,9.0,33,0.00,,,0.00,meteohub,2013-10-09 22:17:00,
2013-10-09 18:22:00,62.1,33.4,30.16,North,10,4.0,11.0,34,0.00,,,0.00,meteohub,2013-10-09 22:22:00,
2013-10-09 18:27:00,61.9,33.3,30.16,East,100,5.0,11.0,34,0.00,,,0.00,meteohub,2013-10-09 22:27:00,
2013-10-09 18:32:00,61.3,32.7,30.16,NE,55,2.0,11.0,34,0.00,,,0.00,meteohub,2013-10-09 22:32:00,
2013-10-09 18:37:00,61.0,32.5,30.16,South,190,5.0,8.0,34,0.00,,,0.00,meteohub,2013-10-09 22:37:00,
2013-10-09 18:42:00,60.6,32.9,30.16,NNE,32,3.0,11.0,35,0.00,,,0.00,meteohub,2013-10-09 22:42:00,
2013-10-09 18:47:00,59.9,32.2,30.16,SSW,212,3.0,11.0,35,0.00,,,0.00,meteohub,2013-10-09 22:47:00,
2013-10-09 18:52:00,59.5,31.8,30.16,SE,145,5.0,7.0,35,0.00,,,0.00,meteohub,2013-10-09 22:52:00,
2013-10-09 18:57:00,58.8,32.0,30.16,South,190,11.0,11.0,36,0.00,,,0.00,meteohub,2013-10-09 22:57:00,
2013-10-09 19:02:00,59.4,31.8,30.16,South,190,4.0,13.0,35,0.00,,,0.00,meteohub,2013-10-09 23:02:00,
2013-10-09 19:07:00,58.6,31.8,30.16,SSW,212,4.0,13.0,36,0.00,,,0.00,meteohub,2013-10-09 23:07:00,
2013-10-09 19:12:00,58.3,32.2,30.16,ESE,122,4.0,12.0,37,0.00,,,0.00,meteohub,2013-10-09 23:12:00,
2013-10-09 19:17:00,57.9,31.8,30.16,East,100,3.0,8.0,37,0.00,,,0.00,meteohub,2013-10-09 23:17:00,
2013-10-09 19:22:00,57.7,32.4,30.16,SSE,168,3.0,6.0,38,0.00,,,0.00,meteohub,2013-10-09 23:22:00,
2013-10-09 19:27:00,57.6,32.2,30.16,South,190,0.0,6.0,38,0.00,,,0.00,meteohub,2013-10-09 23:27:00,
2013-10-09 19:32:00,57.6,32.9,30.16,South,190,2.0,5.0,39,0.00,,,0.00,meteohub,2013-10-09 23:32:00,
2013-10-09 19:37:00,57.2,32.5,30.16,NW,325,3.0,6.0,39,0.00,,,0.00,meteohub,2013-10-09 23:37:00,
2013-10-09 19:42:00,57.0,32.9,30.16,ESE,122,4.0,6.0,40,0.00,,,0.00,meteohub,2013-10-09 23:42:00,
2013-10-09 19:47:00,56.8,33.4,30.16,SE,145,4.0,6.0,41,0.00,,,0.00,meteohub,2013-10-09 23:47:00,
2013-10-09 19:52:00,56.7,33.8,30.16,SSE,168,3.0,6.0,42,0.00,,,0.00,meteohub,2013-10-09 23:52:00,
2013-10-09 19:57:00,56.5,34.3,30.16,ENE,78,4.0,6.0,43,0.00,,,0.00,meteohub,2013-10-09 23:57:00,
2013-10-09 20:02:00,56.5,34.3,30.16,SSE,168,5.0,6.0,43,0.00,,,0.00,meteohub,2013-10-10 00:02:00,
2013-10-09 20:07:00,56.1,34.0,30.16,SE,145,3.0,5.0,43,0.00,,,0.00,meteohub,2013-10-10 00:07:00,
2013-10-09 20:12:00,55.9,34.3,30.13,ESE,122,4.0,5.0,44,0.00,,,0.00,meteohub,2013-10-10 00:12:00,
2013-10-09 20:17:00,55.6,34.7,30.13,SE,145,4.0,5.0,45,0.00,,,0.00,meteohub,2013-10-10 00:17:00,
2013-10-09 20:22:00,55.4,34.5,30.13,SE,145,5.0,5.0,45,0.00,,,0.00,meteohub,2013-10-10 00:22:00,
2013-10-09 20:27:00,55.2,34.9,30.16,SE,145,4.0,5.0,46,0.00,,,0.00,meteohub,2013-10-10 00:27:00,
2013-10-09 20:32:00,55.0,34.7,30.16,SSE,168,6.0,7.0,46,0.00,,,0.00,meteohub,2013-10-10 00:32:00,
2013-10-09 20:37:00,54.7,34.3,30.16,ESE,122,4.0,7.0,46,0.00,,,0.00,meteohub,2013-10-10 00:37:00,
2013-10-09 20:42:00,54.5,34.2,30.16,SSE,168,4.0,6.0,46,0.00,,,0.00,meteohub,2013-10-10 00:42:00,
2013-10-09 20:47:00,54.3,34.0,30.16,SE,145,4.0,6.0,46,0.00,,,0.00,meteohub,2013-10-10 00:47:00,
2013-10-09 20:52:00,54.3,34.0,30.16,SE,145,4.0,6.0,46,0.00,,,0.00,meteohub,2013-10-10 00:52:00,
2013-10-09 20:57:00,54.0,34.2,30.16,SSE,168,5.0,5.0,47,0.00,,,0.00,meteohub,2013-10-10 00:57:00,
2013-10-09 21:02:00,53.8,34.0,30.16,ESE,122,3.0,6.0,47,0.00,,,0.00,meteohub,2013-10-10 01:02:00,
2013-10-09 21:07:00,53.6,34.0,30.16,ESE,122,0.0,6.0,47,0.00,,,0.00,meteohub,2013-10-10 01:07:00,
2013-10-09 21:12:00,53.6,34.0,30.16,SE,145,0.0,5.0,47,0.00,,,0.00,meteohub,2013-10-10 01:12:00,
2013-10-09 21:17:00,53.4,34.3,30.16,SSE,168,3.0,5.0,48,0.00,,,0.00,meteohub,2013-10-10 01:17:00,
2013-10-09 21:22:00,53.2,34.2,30.16,East,100,4.0,5.0,48,0.00,,,0.00,meteohub,2013-10-10 01:22:00,
2013-10-09 21:27:00,53.1,34.5,30.13,ENE,78,0.0,5.0,49,0.00,,,0.00,meteohub,2013-10-10 01:27:00,
2013-10-09 21:32:00,53.1,34.9,30.13,ENE,78,0.0,5.0,50,0.00,,,0.00,meteohub,2013-10-10 01:32:00,
2013-10-09 21:37:00,52.9,34.7,30.13,SE,145,4.0,4.0,50,0.00,,,0.00,meteohub,2013-10-10 01:37:00,
2013-10-09 21:42:00,53.1,34.9,30.16,SSW,212,2.0,6.0,50,0.00,,,0.00,meteohub,2013-10-10 01:42:00,
2013-10-09 21:47:00,53.2,34.5,30.16,ENE,78,0.0,6.0,49,0.00,,,0.00,meteohub,2013-10-10 01:47:00,
2013-10-09 21:52:00,53.2,34.5,30.16,SE,145,3.0,6.0,49,0.00,,,0.00,meteohub,2013-10-10 01:52:00,
2013-10-09 21:57:00,53.2,34.5,30.13,ENE,78,0.0,5.0,49,0.00,,,0.00,meteohub,2013-10-10 01:57:00,
2013-10-09 22:02:00,53.2,34.5,30.13,ESE,122,6.0,7.0,49,0.00,,,0.00,meteohub,2013-10-10 02:02:00,
2013-10-09 22:07:00,53.2,34.5,30.13,North,10,2.0,11.0,49,0.00,,,0.00,meteohub,2013-10-10 02:07:00,
2013-10-09 22:12:00,53.4,34.7,30.16,NE,55,0.0,11.0,49,0.00,,,0.00,meteohub,2013-10-10 02:12:00,
2013-10-09 22:17:00,53.4,34.7,30.16,East,100,3.0,11.0,49,0.00,,,0.00,meteohub,2013-10-10 02:17:00,
2013-10-09 22:22:00,53.2,34.5,30.16,ENE,78,2.0,12.0,49,0.00,,,0.00,meteohub,2013-10-10 02:22:00,
2013-10-09 22:27:00,53.1,34.5,30.16,SW,235,2.0,12.0,49,0.00,,,0.00,meteohub,2013-10-10 02:27:00,
2013-10-09 22:32:00,53.1,34.9,30.16,East,100,2.0,6.0,50,0.00,,,0.00,meteohub,2013-10-10 02:32:00,
2013-10-09 22:37:00,53.1,34.9,30.16,SSE,168,4.0,6.0,50,0.00,,,0.00,meteohub,2013-10-10 02:37:00,
2013-10-09 22:42:00,52.9,34.7,30.16,ESE,122,3.0,7.0,50,0.00,,,0.00,meteohub,2013-10-10 02:42:00,
2013-10-09 22:47:00,52.9,35.2,30.16,East,100,6.0,9.0,51,0.00,,,0.00,meteohub,2013-10-10 02:47:00,
2013-10-09 22:52:00,52.7,35.1,30.16,WSW,258,3.0,9.0,51,0.00,,,0.00,meteohub,2013-10-10 02:52:00,
2013-10-09 22:57:00,52.7,35.1,30.16,NW,325,4.0,9.0,51,0.00,,,0.00,meteohub,2013-10-10 02:57:00,
2013-10-09 23:02:00,52.7,35.1,30.16,ENE,78,4.0,7.0,51,0.00,,,0.00,meteohub,2013-10-10 03:02:00,
2013-10-09 23:07:00,52.7,35.6,30.16,ENE,78,2.0,7.0,52,0.00,,,0.00,meteohub,2013-10-10 03:07:00,
2013-10-09 23:12:00,52.7,35.6,30.16,NNE,32,7.0,7.0,52,0.00,,,0.00,meteohub,2013-10-10 03:12:00,
2013-10-09 23:22:00,52.7,35.6,30.16,NNE,32,4.0,8.0,52,0.00,,,0.00,meteohub,2013-10-10 03:22:00,
2013-10-09 23:27:00,52.5,35.4,30.19,SSW,212,5.0,8.0,52,0.00,,,0.00,meteohub,2013-10-10 03:27:00,
2013-10-09 23:32:00,52.5,35.4,30.19,NNE,32,2.0,7.0,52,0.00,,,0.00,meteohub,2013-10-10 03:32:00,
2013-10-09 23:37:00,52.5,35.4,30.19,NNE,32,0.0,7.0,52,0.00,,,0.00,meteohub,2013-10-10 03:37:00,
2013-10-09 23:42:00,52.5,35.4,30.16,NE,55,6.0,7.0,52,0.00,,,0.00,meteohub,2013-10-10 03:42:00,
2013-10-09 23:52:00,52.2,35.6,30.16,ENE,78,4.0,9.0,53,0.00,,,0.00,meteohub,2013-10-10 03:52:00,
2013-10-09 23:57:00,52.3,35.8,30.16,NNW,348,8.0,9.0,53,0.00,,,0.00,meteohub,2013-10-10 03:57:00,